Time;durP1;ratioP1;P1;durP2;ratioP2;P2;SDS_P1;SDS_P2;PMS_P1;PMS_P2;Temp;Humidity;BMP_temperature;BMP_pressure;BME280_temperature;BME280_humidity;BME280_pressure;Samples;Min_cycle;Max_cycle;Signal;HPM_P1;HPM_P2
2021/06/02 00:01:35;;;;;;;8.98;4.00;;;;;;;11.21;44.23;100460.31;5049524;28;20427;-45
2021/06/02 00:04:03;;;;;;;11.15;3.83;;;;;;;11.20;44.42;100469.31;5049041;28;20033;-47
2021/06/02 00:06:30;;;;;;;12.02;3.88;;;;;;;10.60;44.29;100370.91;5048849;28;20519;-51
2021/06/02 00:08:56;;;;;;;6.20;3.72;;;;;;;10.98;44.41;100437.88;5049140;28;20052;-46
2021/06/02 00:11:22;;;;;;;9.00;3.63;;;;;;;11.16;44.16;100467.84;5049106;28;20033;-53
2021/06/02 00:13:48;;;;;;;9.13;4.22;;;;;;;11.03;44.37;100455.31;5049312;28;20095;-48
2021/06/02 00:16:14;;;;;;;7.60;3.97;;;;;;;11.16;44.09;100467.84;5052044;28;20041;-56
2021/06/02 00:18:41;;;;;;;6.22;3.33;;;;;;;11.05;44.10;100445.34;5052436;28;20189;-49
2021/06/02 00:21:07;;;;;;;14.30;3.90;;;;;;;11.11;44.54;100467.31;5052915;28;20463;-49
2021/06/02 00:23:32;;;;;;;12.88;4.10;;;;;;;10.90;44.44;100441.97;5052635;28;20039;-52
2021/06/02 00:26:00;;;;;;;9.32;3.88;;;;;;;10.90;45.19;100449.16;5052780;28;20527;-45
2021/06/02 00:28:27;;;;;;;7.57;3.70;;;;;;;10.94;45.44;100473.88;5052140;28;20052;-46
2021/06/02 00:30:53;;;;;;;7.15;3.38;;;;;;;10.88;45.46;100464.50;5052626;28;20166;-48
2021/06/02 00:33:19;;;;;;;9.27;3.40;;;;;;;10.86;45.23;100474.47;5052626;28;20500;-49
2021/06/02 00:35:44;;;;;;;5.82;3.25;;;;;;;10.84;45.46;100471.88;5052620;28;20045;-48
2021/06/02 00:38:11;;;;;;;4.90;3.20;;;;;;;10.71;45.93;100455.81;5051003;28;20033;-48
2021/06/02 00:40:44;;;;;;;7.40;3.45;;;;;;;10.68;46.81;100453.38;5052513;28;20087;-51
2021/06/02 00:43:10;;;;;;;6.10;3.63;;;;;;;10.09;46.42;100363.75;5052532;28;20036;-50
2021/06/02 00:45:36;;;;;;;8.10;3.33;;;;;;;10.57;46.22;100450.59;5052074;28;20033;-51
2021/06/02 00:48:03;;;;;;;6.22;3.05;;;;;;;10.60;47.06;100469.97;5052042;28;20108;-45
2021/06/02 00:50:30;;;;;;;6.55;3.08;;;;;;;9.87;46.98;100357.22;5052326;28;20040;-51
2021/06/02 00:52:55;;;;;;;5.78;3.20;;;;;;;10.51;47.21;100473.31;5052121;28;20037;-48
2021/06/02 00:55:21;;;;;;;9.00;3.40;;;;;;;10.23;47.36;100434.19;5052295;28;20048;-50
2021/06/02 00:57:54;;;;;;;6.95;3.58;;;;;;;9.97;47.84;100389.53;5052363;28;20083;-49
2021/06/02 01:00:20;;;;;;;4.53;2.60;;;;;;;10.40;47.54;100463.34;5051974;28;20538;-49
2021/06/02 01:02:51;;;;;;;3.42;2.47;;;;;;;10.04;48.16;100414.06;5052102;28;20040;-51
2021/06/02 01:05:20;;;;;;;7.35;2.90;;;;;;;10.31;47.57;100469.28;5052379;28;20033;-50
2021/06/02 01:07:49;;;;;;;6.22;2.58;;;;;;;10.30;47.88;100460.44;5052120;28;20071;-53
2021/06/02 01:10:17;;;;;;;6.35;2.78;;;;;;;10.32;47.79;100461.16;5051656;28;20037;-49
2021/06/02 01:12:44;;;;;;;4.53;2.78;;;;;;;10.20;48.36;100444.16;5051931;28;20051;-49
2021/06/02 01:15:10;;;;;;;4.55;2.60;;;;;;;9.67;48.02;100363.09;5052077;28;20029;-49
2021/06/02 01:17:36;;;;;;;6.65;2.65;;;;;;;10.37;47.96;100484.06;5050403;28;20408;-48
2021/06/02 01:20:04;;;;;;;4.60;2.55;;;;;;;10.39;48.40;100483.03;5051250;28;20032;-49
2021/06/02 01:22:34;;;;;;;5.07;2.63;;;;;;;10.05;47.87;100426.47;5051567;28;20106;-53
2021/06/02 01:25:19;;;;;;;4.63;2.42;;;;;;;10.47;48.45;100466.44;5051785;28;20037;-45
2021/06/02 01:27:46;;;;;;;6.10;2.55;;;;;;;10.34;47.85;100448.53;5051515;28;20071;-47
2021/06/02 01:30:22;;;;;;;6.43;2.50;;;;;;;10.47;48.42;100459.28;5051262;28;20037;-46
2021/06/02 01:32:56;;;;;;;4.28;2.50;;;;;;;10.48;48.68;100463.66;5051851;28;20037;-47
2021/06/02 01:35:44;;;;;;;7.50;2.40;;;;;;;10.51;48.26;100467.09;5050809;28;20063;-48
2021/06/02 01:38:47;;;;;;;2.85;2.50;;;;;;;10.56;48.49;100459.56;5051481;28;20961;-51
2021/06/02 01:41:19;;;;;;;3.40;2.58;;;;;;;10.53;48.09;100462.47;5050587;28;20429;-52
2021/06/02 01:43:52;;;;;;;2.63;2.40;;;;;;;10.53;48.49;100467.84;5051460;28;20036;-53
2021/06/02 01:46:42;;;;;;;4.22;2.17;;;;;;;10.57;48.51;100464.84;5051576;28;20049;-52
2021/06/02 01:49:35;;;;;;;2.47;2.28;;;;;;;10.59;48.25;100468.25;5051016;28;20056;-51
2021/06/02 01:52:19;;;;;;;4.22;2.50;;;;;;;10.61;48.81;100471.69;5050903;28;20040;-49
2021/06/02 01:55:05;;;;;;;9.93;2.60;;;;;;;10.60;48.76;100471.78;5051387;28;20045;-50
2021/06/02 01:57:31;;;;;;;3.60;2.53;;;;;;;10.58;47.98;100463.00;5051240;28;20036;-53
2021/06/02 02:00:13;;;;;;;3.15;2.35;;;;;;;10.66;48.44;100474.03;5051014;28;20037;-49
2021/06/02 02:03:13;;;;;;;3.78;2.20;;;;;;;10.72;48.25;100470.06;5050656;28;20082;-52
2021/06/02 02:05:58;;;;;;;6.57;2.60;;;;;;;10.58;48.27;100434.41;5051143;28;20135;-48
2021/06/02 02:08:42;;;;;;;4.13;2.38;;;;;;;10.85;47.72;100470.03;5050861;28;20084;-45
2021/06/02 02:11:28;;;;;;;4.25;2.58;;;;;;;10.93;47.54;100473.03;5050890;28;20064;-47
2021/06/02 02:14:04;;;;;;;4.78;2.28;;;;;;;11.15;47.43;100469.66;5050634;28;20033;-51
2021/06/02 02:16:55;;;;;;;5.00;2.50;;;;;;;11.39;46.47;100470.66;5050608;28;20072;-55
2021/06/02 02:19:35;;;;;;;5.82;2.10;;;;;;;11.67;45.92;100458.72;5050096;28;20385;-48
2021/06/02 02:22:27;;;;;;;5.50;2.78;;;;;;;12.02;45.20;100467.78;5050670;28;20115;-49
2021/06/02 02:25:01;;;;;;;4.53;2.50;;;;;;;12.28;44.95;100463.09;5021418;28;20132;-46
2021/06/02 02:27:46;;;;;;;4.50;2.72;;;;;;;12.23;44.12;100410.72;5050769;28;20044;-50
2021/06/02 02:30:45;;;;;;;3.92;2.67;;;;;;;12.99;43.43;100466.53;5050399;28;20571;-48
2021/06/02 02:33:40;;;;;;;5.68;2.63;;;;;;;13.42;42.25;100468.41;5050089;28;20071;-49
2021/06/02 02:36:14;;;;;;;6.15;2.90;;;;;;;13.76;41.53;100470.16;5030748;28;20052;-49
2021/06/02 02:39:12;;;;;;;9.07;3.13;;;;;;;14.12;41.03;100462.63;5030015;28;20095;-47
2021/06/02 02:41:49;;;;;;;5.38;2.50;;;;;;;14.14;40.51;100449.88;5009313;28;20433;-47
2021/06/02 02:44:37;;;;;;;5.57;2.70;;;;;;;14.41;39.78;100458.41;5036885;28;20020;-52
2021/06/02 02:47:25;;;;;;;6.82;2.60;;;;;;;14.63;39.32;100447.47;5019627;28;20504;-49
2021/06/02 02:50:13;;;;;;;5.72;2.72;;;;;;;14.75;39.12;100461.75;5041777;28;20045;-49
2021/06/02 02:53:06;;;;;;;4.00;2.67;;;;;;;14.69;39.18;100461.41;5050400;28;20040;-49
2021/06/02 02:55:35;;;;;;;5.68;2.42;;;;;;;14.54;39.17;100463.59;5021523;28;20140;-53
2021/06/02 02:58:16;;;;;;;4.32;2.78;;;;;;;14.48;39.35;100459.59;5050253;28;20582;-50
2021/06/02 03:00:44;;;;;;;10.25;3.33;;;;;;;14.44;39.28;100464.38;5050426;28;20044;-48
2021/06/02 03:03:39;;;;;;;5.65;3.33;;;;;;;14.55;39.25;100462.59;5050088;28;20118;-51
2021/06/02 03:06:10;;;;;;;10.65;3.53;;;;;;;14.91;38.47;100465.75;5036433;28;20535;-49
2021/06/02 03:08:49;;;;;;;8.68;3.45;;;;;;;15.35;37.64;100452.81;5049095;28;20037;-50
2021/06/02 03:11:23;;;;;;;9.68;3.65;;;;;;;15.86;36.36;100463.50;5049905;28;20051;-45
2021/06/02 03:14:14;;;;;;;9.43;3.53;;;;;;;16.29;35.98;100464.06;5049741;28;20558;-51
2021/06/02 03:16:43;;;;;;;9.63;3.47;;;;;;;16.74;34.85;100462.50;5046459;28;20595;-52
2021/06/02 03:19:19;;;;;;;7.25;3.65;;;;;;;17.11;34.40;100482.41;5049320;28;20403;-52
2021/06/02 03:22:03;;;;;;;6.32;3.25;;;;;;;17.48;33.91;100461.69;5049719;28;20036;-48
2021/06/02 03:24:28;;;;;;;8.68;3.17;;;;;;;17.77;33.37;100457.88;5049871;28;20037;-52
2021/06/02 03:27:00;;;;;;;7.63;3.08;;;;;;;18.11;32.58;100454.50;5049368;28;20044;-50
2021/06/02 03:29:52;;;;;;;5.30;3.25;;;;;;;18.54;31.57;100461.88;5047781;28;20048;-48
2021/06/02 03:32:28;;;;;;;11.30;3.17;;;;;;;19.05;30.80;100471.00;5049086;28;20377;-46
2021/06/02 03:35:13;;;;;;;7.10;3.58;;;;;;;19.70;30.24;100462.31;5049866;28;20041;-45
2021/06/02 03:38:03;;;;;;;7.03;3.30;;;;;;;20.28;29.33;100462.34;5049554;28;20037;-46
2021/06/02 03:40:56;;;;;;;10.30;3.08;;;;;;;20.87;27.64;100463.91;5049388;28;20041;-52
2021/06/02 03:43:29;;;;;;;7.63;3.20;;;;;;;21.07;27.66;100469.78;5049461;28;20371;-48
2021/06/02 03:46:19;;;;;;;6.22;3.13;;;;;;;21.44;26.75;100464.63;5049325;28;20060;-50
2021/06/02 03:49:03;;;;;;;6.93;2.90;;;;;;;21.94;26.22;100466.03;5049350;28;20036;-48
2021/06/02 03:51:53;;;;;;;8.43;2.60;;;;;;;22.62;24.59;100456.19;5052524;28;20056;-47
2021/06/02 03:54:43;;;;;;;6.45;2.72;;;;;;;23.36;24.57;100468.09;5053319;28;20029;-51
2021/06/02 03:57:33;;;;;;;4.45;2.42;;;;;;;23.88;23.93;100476.19;5053313;28;20033;-50
2021/06/02 04:00:02;;;;;;;5.57;2.42;;;;;;;24.32;22.81;100471.53;5053483;28;20055;-49
2021/06/02 04:02:47;;;;;;;3.03;2.40;;;;;;;24.41;21.50;100448.47;5052664;28;20048;-49
2021/06/02 04:05:19;;;;;;;7.55;2.50;;;;;;;24.87;21.31;100468.97;5052958;28;20047;-48
2021/06/02 04:08:09;;;;;;;4.38;2.40;;;;;;;25.49;20.80;100479.16;5053015;28;20037;-50
2021/06/02 04:11:03;;;;;;;5.28;2.10;;;;;;;26.19;19.97;100492.56;5053222;28;20115;-49
2021/06/02 04:13:34;;;;;;;3.28;2.00;;;;;;;26.88;19.17;100486.78;5052755;28;20048;-52
2021/06/02 04:16:12;;;;;;;4.35;2.05;;;;;;;27.45;18.50;100486.13;5052809;28;20056;-50
2021/06/02 04:18:41;;;;;;;6.38;2.65;;;;;;;27.85;18.25;100484.19;5053288;28;20048;-50
2021/06/02 04:21:07;;;;;;;5.22;2.50;;;;;;;28.69;17.33;100480.31;5052840;28;20024;-48
2021/06/02 04:23:36;;;;;;;5.93;2.20;;;;;;;29.19;16.41;100487.63;5052905;28;20037;-46
2021/06/02 04:26:02;;;;;;;5.65;1.80;;;;;;;29.78;16.32;100481.50;5052921;28;20167;-48
2021/06/02 04:28:33;;;;;;;4.13;2.10;;;;;;;30.45;15.27;100485.94;5052638;28;20124;-51
2021/06/02 04:31:06;;;;;;;3.33;2.30;;;;;;;31.01;14.85;100476.41;5052879;28;20064;-48
2021/06/02 04:33:33;;;;;;;3.95;1.90;;;;;;;30.96;14.43;100481.81;5052560;28;20036;-49
2021/06/02 04:35:59;;;;;;;3.65;2.10;;;;;;;31.32;14.03;100494.47;5052624;28;20048;-48
2021/06/02 04:38:25;;;;;;;3.53;2.00;;;;;;;31.77;13.74;100494.78;5052702;28;20033;-45
2021/06/02 04:40:52;;;;;;;4.85;1.80;;;;;;;32.49;13.04;100482.13;5051731;28;20043;-48
2021/06/02 04:43:19;;;;;;;3.53;2.05;;;;;;;33.07;12.54;100505.94;5051824;28;20603;-50
2021/06/02 04:46:07;;;;;;;6.28;1.98;;;;;;;33.81;11.82;100487.09;5052437;28;20048;-49
2021/06/02 04:48:33;;;;;;;5.68;1.90;;;;;;;33.83;11.64;100496.00;5052872;28;20039;-50
2021/06/02 04:51:17;;;;;;;3.97;2.10;;;;;;;34.13;11.15;100486.25;5052416;28;20045;-52
2021/06/02 04:54:13;;;;;;;2.58;1.65;;;;;;;34.86;11.31;100503.41;5052085;28;20033;-57
2021/06/02 04:56:56;;;;;;;;;;;;;;;36.49;10.49;100503.19;5053172;28;20078;-58
2021/06/02 04:59:57;;;;;;;2.80;1.60;;;;;;;36.31;10.42;100514.94;5052299;28;19924;-46
2021/06/02 05:02:41;;;;;;;2.92;2.05;;;;;;;36.26;9.61;100524.13;5047281;28;20427;-48
2021/06/02 05:05:29;;;;;;;3.85;1.60;;;;;;;36.91;9.66;100514.28;5052037;28;20044;-52
2021/06/02 05:08:10;;;;;;;4.95;1.80;;;;;;;36.82;9.20;100514.00;5021890;28;20036;-52
2021/06/02 05:10:47;;;;;;;3.60;1.80;;;;;;;37.25;9.26;100509.94;5052118;28;20561;-53
2021/06/02 05:13:31;;;;;;;3.80;1.83;;;;;;;38.10;8.41;100521.16;5052024;28;20037;-55
2021/06/02 05:16:24;;;;;;;4.53;1.75;;;;;;;39.21;7.59;100524.19;5051534;28;20460;-55
2021/06/02 05:19:33;;;;;;;4.28;1.80;;;;;;;39.32;7.86;100528.53;5051769;28;20032;-49
2021/06/02 05:22:14;;;;;;;5.03;1.88;;;;;;;38.77;7.21;100535.34;5051706;28;20033;-54
2021/06/02 05:25:23;;;;;;;2.67;1.85;;;;;;;38.64;7.39;100541.66;5052389;28;20463;-54
2021/06/02 05:28:21;;;;;;;2.50;1.60;;;;;;;37.86;7.22;100553.47;4989879;28;20058;-51
2021/06/02 05:31:11;;;;;;;6.07;1.90;;;;;;;37.51;7.59;100544.19;5014328;28;20545;-51
2021/06/02 05:33:55;;;;;;;2.72;1.67;;;;;;;37.62;7.84;100539.38;5052062;28;20061;-50
2021/06/02 05:37:02;;;;;;;10.35;1.65;;;;;;;39.01;6.84;100540.13;5050980;28;20055;-49
2021/06/02 05:40:12;;;;;;;4.30;1.65;;;;;;;39.94;6.54;100532.44;5023242;28;20079;-50
2021/06/02 05:43:14;;;;;;;3.80;1.50;;;;;;;40.09;6.49;100536.09;5051572;28;20032;-49
2021/06/02 05:45:58;;;;;;;3.53;1.95;;;;;;;41.13;6.14;100540.63;5051814;28;20115;-51
2021/06/02 05:49:01;;;;;;;3.08;1.73;;;;;;;41.23;6.30;100540.44;5051507;28;20056;-49
2021/06/02 05:51:41;;;;;;;3.53;1.83;;;;;;;42.13;5.12;100547.38;5050893;28;20033;-50
2021/06/02 05:54:28;;;;;;;3.05;1.90;;;;;;;40.89;5.16;100331.13;5051987;28;20064;-51
2021/06/02 05:57:14;;;;;;;3.35;2.00;;;;;;;41.86;5.22;100532.25;5050917;28;20032;-47
2021/06/02 05:59:58;;;;;;;3.63;1.60;;;;;;;41.64;4.94;100543.50;5050827;28;20378;-49
2021/06/02 06:02:51;;;;;;;7.15;1.88;;;;;;;40.80;5.21;100533.16;5050905;28;20036;-50
2021/06/02 06:05:48;;;;;;;2.78;1.80;;;;;;;40.28;5.05;100531.31;5050815;28;20041;-51
2021/06/02 06:08:45;;;;;;;2.85;1.50;;;;;;;40.52;5.45;100537.91;5050746;28;20047;-54
2021/06/02 06:11:54;;;;;;;4.47;2.25;;;;;;;40.35;4.70;100542.13;5050983;28;20059;-50
2021/06/02 06:14:43;;;;;;;2.55;1.50;;;;;;;39.32;5.74;100544.50;5050164;28;20424;-53
2021/06/02 06:17:27;;;;;;;7.47;2.53;;;;;;;38.88;5.25;100536.03;5051001;28;20040;-52
2021/06/02 06:20:18;;;;;;;2.10;1.77;;;;;;;39.05;6.03;100543.97;5050107;28;20083;-52
2021/06/02 06:23:02;;;;;;;3.13;2.00;;;;;;;39.80;5.65;100545.50;5050475;28;20523;-53
2021/06/02 06:25:33;;;;;;;2.47;1.75;;;;;;;40.11;5.28;100540.28;5050393;28;20029;-48
2021/06/02 06:28:20;;;;;;;4.50;1.83;;;;;;;39.32;5.75;100550.94;5050881;28;20139;-49
2021/06/02 06:30:49;;;;;;;3.95;1.60;;;;;;;39.04;5.80;100539.50;5050687;28;20049;-50
2021/06/02 06:33:17;;;;;;;4.18;1.60;;;;;;;39.55;5.35;100536.38;5050576;28;20140;-52
2021/06/02 06:35:45;;;;;;;3.60;1.83;;;;;;;40.72;5.48;100531.09;5050829;28;20546;-50
2021/06/02 06:38:21;;;;;;;3.78;1.90;;;;;;;40.99;4.88;100533.03;5050559;28;20037;-54
2021/06/02 06:40:51;;;;;;;3.78;1.90;;;;;;;40.98;4.75;100534.19;5049652;28;20043;-50
2021/06/02 06:43:19;;;;;;;1.70;1.60;;;;;;;41.75;4.60;100537.31;5050120;28;20052;-51
2021/06/02 06:45:46;;;;;;;2.03;1.67;;;;;;;42.06;3.96;100544.19;5050258;28;20060;-56
2021/06/02 06:48:21;;;;;;;2.22;2.03;;;;;;;41.41;4.77;100540.59;5050396;28;20033;-51
2021/06/02 06:50:50;;;;;;;3.38;2.17;;;;;;;41.94;4.43;100539.09;5049904;28;20031;-57
2021/06/02 06:53:17;;;;;;;4.55;2.13;;;;;;;43.41;4.07;100532.00;5050560;28;20127;-52
2021/06/02 06:55:45;;;;;;;2.80;2.20;;;;;;;45.26;3.43;100540.84;5049939;28;20033;-53
2021/06/02 06:58:11;;;;;;;4.07;2.03;;;;;;;46.02;2.65;100486.31;5050172;28;20059;-50
2021/06/02 07:00:38;;;;;;;3.45;1.80;;;;;;;45.06;3.04;100545.31;5049906;28;20025;-51
2021/06/02 07:03:04;;;;;;;2.75;1.95;;;;;;;44.12;3.43;100527.22;5050415;28;20044;-50
2021/06/02 07:05:31;;;;;;;1.95;1.65;;;;;;;44.31;3.45;100524.00;5048680;28;20032;-48
2021/06/02 07:07:57;;;;;;;4.03;1.65;;;;;;;45.90;3.23;100523.09;5049786;28;20036;-53
2021/06/02 07:10:23;;;;;;;2.85;2.13;;;;;;;46.84;2.70;100479.00;5049918;28;20029;-53
2021/06/02 07:12:49;;;;;;;6.03;2.20;;;;;;;47.46;2.35;100500.75;5049815;28;20053;-50
2021/06/02 07:15:16;;;;;;;4.78;2.20;;;;;;;47.53;2.41;100523.66;5049841;28;20032;-53
2021/06/02 07:17:49;;;;;;;6.50;2.15;;;;;;;48.01;1.81;100520.16;5049811;28;20044;-52
2021/06/02 07:20:20;;;;;;;3.83;1.80;;;;;;;44.37;2.87;100530.31;5049941;28;20068;-50
2021/06/02 07:22:47;;;;;;;4.03;1.80;;;;;;;41.65;4.07;100491.75;5049733;28;20036;-51
2021/06/02 07:25:18;;;;;;;2.70;1.80;;;;;;;40.75;4.95;100454.69;5049505;28;20037;-50
2021/06/02 07:27:48;;;;;;;2.28;1.50;;;;;;;40.90;4.75;100512.47;5049475;28;20063;-51
2021/06/02 07:30:15;;;;;;;3.33;1.55;;;;;;;38.07;6.22;100544.13;5049771;28;20037;-52
2021/06/02 07:32:41;;;;;;;1.90;1.50;;;;;;;35.70;7.25;100536.06;5049173;28;20065;-50
2021/06/02 07:35:08;;;;;;;3.42;1.80;;;;;;;34.10;8.23;100525.69;5049686;28;20037;-48
2021/06/02 07:37:34;;;;;;;7.82;1.83;;;;;;;36.52;7.33;100504.59;5049251;28;20041;-48
2021/06/02 07:40:00;;;;;;;6.70;1.70;;;;;;;39.60;5.89;100495.09;5049481;28;20443;-51
2021/06/02 07:42:26;;;;;;;2.90;1.75;;;;;;;39.90;5.58;100486.50;5049352;28;20082;-50
2021/06/02 07:44:53;;;;;;;3.08;1.50;;;;;;;41.14;4.95;100483.31;5049117;28;20041;-53
2021/06/02 07:47:19;;;;;;;2.67;1.80;;;;;;;42.00;4.53;100484.38;5049308;28;20123;-50
2021/06/02 07:49:44;;;;;;;4.13;1.58;;;;;;;40.01;5.49;100442.31;5048600;28;20116;-50
2021/06/02 07:52:10;;;;;;;5.03;1.80;;;;;;;38.30;5.87;100493.00;5049465;28;20400;-49
2021/06/02 07:54:36;;;;;;;3.90;1.60;;;;;;;38.51;6.40;100472.41;5046536;28;20123;-51
2021/06/02 07:57:01;;;;;;;2.78;1.65;;;;;;;39.87;5.50;100485.16;5048081;28;20130;-51
2021/06/02 07:59:27;;;;;;;2.88;1.80;;;;;;;41.33;5.20;100480.38;5049336;28;20393;-50
2021/06/02 08:01:52;;;;;;;4.00;1.65;;;;;;;42.45;4.77;100446.97;5049042;28;20033;-51
2021/06/02 08:04:18;;;;;;;3.25;1.75;;;;;;;43.68;4.30;100466.03;5049730;28;20155;-51
2021/06/02 08:06:43;;;;;;;3.38;1.60;;;;;;;44.17;3.68;100465.81;5049848;28;20029;-50
2021/06/02 08:09:11;;;;;;;5.85;1.80;;;;;;;43.85;3.53;100478.47;5049695;28;20407;-54
2021/06/02 08:11:37;;;;;;;2.38;1.65;;;;;;;42.75;3.78;100472.53;5049660;28;20032;-48
2021/06/02 08:14:02;;;;;;;4.07;1.70;;;;;;;40.59;4.76;100435.31;5049095;28;20044;-51
2021/06/02 08:16:27;;;;;;;4.68;1.92;;;;;;;39.08;5.81;100482.94;5049474;28;20072;-51
2021/06/02 08:18:53;;;;;;;5.10;1.88;;;;;;;35.45;7.65;100470.81;5049646;28;20132;-48
2021/06/02 08:21:19;;;;;;;3.38;1.65;;;;;;;32.90;9.32;100461.66;5049448;28;20071;-54
2021/06/02 08:23:44;;;;;;;2.67;1.73;;;;;;;31.10;10.04;100465.78;5049427;28;20068;-52
2021/06/02 08:26:10;;;;;;;3.63;1.80;;;;;;;28.66;12.40;100437.53;5049546;28;20076;-53
2021/06/02 08:28:36;;;;;;;4.78;1.95;;;;;;;27.57;12.98;100403.78;5047365;28;20057;-53
2021/06/02 08:31:02;;;;;;;4.90;1.50;;;;;;;26.76;14.36;100466.50;5041898;28;20033;-49
2021/06/02 08:33:28;;;;;;;3.70;1.60;;;;;;;26.09;15.47;100449.03;5047196;28;20175;-49
2021/06/02 08:35:54;;;;;;;3.40;1.50;;;;;;;26.10;15.73;100471.84;5049733;28;20128;-47
2021/06/02 08:38:19;;;;;;;3.35;2.00;;;;;;;25.61;15.77;100417.19;5053141;28;20048;-55
2021/06/02 08:40:45;;;;;;;6.50;2.15;;;;;;;25.90;15.84;100475.44;5053019;28;20033;-54
2021/06/02 08:43:11;;;;;;;5.18;1.67;;;;;;;25.68;16.41;100484.88;5052179;28;20536;-50
2021/06/02 08:45:37;;;;;;;3.08;1.73;;;;;;;25.84;16.42;100468.03;5052668;28;20584;-52
2021/06/02 08:48:04;;;;;;;4.03;1.80;;;;;;;25.82;16.21;100467.41;5052461;28;20029;-52
2021/06/02 08:50:30;;;;;;;4.50;1.90;;;;;;;25.71;16.24;100446.06;5052467;28;20033;-51
2021/06/02 08:53:00;;;;;;;4.22;1.90;;;;;;;25.73;16.90;100460.41;5051638;28;20055;-51
2021/06/02 08:55:26;;;;;;;4.72;1.77;;;;;;;25.82;16.63;100464.66;5051999;28;20033;-49
2021/06/02 08:57:53;;;;;;;6.03;1.70;;;;;;;25.85;16.20;100464.25;5052490;28;20562;-52
2021/06/02 09:00:22;;;;;;;8.27;2.00;;;;;;;25.50;16.82;100459.75;5052424;28;20047;-53
2021/06/02 09:02:53;;;;;;;6.50;1.77;;;;;;;25.36;17.27;100463.47;5050991;28;20036;-53
2021/06/02 09:05:19;;;;;;;4.60;1.48;;;;;;;25.62;17.17;100465.47;5047317;28;20166;-53
2021/06/02 09:07:49;;;;;;;3.22;1.60;;;;;;;25.47;16.57;100374.34;5049256;28;20123;-51
2021/06/02 09:10:17;;;;;;;3.25;1.50;;;;;;;25.97;16.52;100452.63;5049460;28;20029;-53
2021/06/02 09:12:43;;;;;;;3.70;1.70;;;;;;;25.74;16.32;100443.78;5050204;28;20045;-48
2021/06/02 09:15:19;;;;;;;3.33;1.45;;;;;;;25.47;16.91;100454.69;5050779;28;20037;-51
2021/06/02 09:17:53;;;;;;;5.70;1.85;;;;;;;25.22;17.33;100448.88;5050529;28;20059;-49
2021/06/02 09:20:44;;;;;;;3.72;2.15;;;;;;;24.94;17.35;100426.00;5052105;28;20051;-46
2021/06/02 09:23:32;;;;;;;2.10;1.85;;;;;;;24.86;17.57;100458.25;5051730;28;20049;-51
2021/06/02 09:26:09;;;;;;;8.00;2.33;;;;;;;24.63;17.52;100454.69;5051341;28;20385;-47
2021/06/02 09:28:47;;;;;;;5.70;2.30;;;;;;;24.45;17.69;100455.22;5052208;28;20118;-49
2021/06/02 09:31:37;;;;;;;4.95;2.17;;;;;;;24.05;18.88;100458.50;5049886;28;20057;-49
2021/06/02 09:34:06;;;;;;;5.15;1.70;;;;;;;23.99;19.13;100452.94;5052016;28;20043;-48
2021/06/02 09:36:39;;;;;;;7.28;2.03;;;;;;;24.22;19.03;100450.84;5051932;28;20064;-49
2021/06/02 09:39:07;;;;;;;3.13;1.60;;;;;;;24.64;18.74;100453.66;5051713;28;20103;-51
2021/06/02 09:42:00;;;;;;;5.72;1.90;;;;;;;24.76;18.17;100432.06;5051364;28;20086;-52
2021/06/02 09:44:30;;;;;;;5.35;1.90;;;;;;;24.88;18.04;100436.97;5049131;28;20382;-51
2021/06/02 09:47:07;;;;;;;5.63;1.90;;;;;;;24.83;18.46;100454.00;5051714;28;20045;-54
2021/06/02 09:49:48;;;;;;;2.95;1.88;;;;;;;24.69;18.91;100438.50;5051290;28;20028;-52
2021/06/02 09:52:15;;;;;;;2.83;2.00;;;;;;;24.05;19.07;100386.53;5051821;28;20045;-53
2021/06/02 09:54:41;;;;;;;2.72;1.88;;;;;;;24.60;19.03;100435.13;5051739;28;20075;-53
2021/06/02 09:57:15;;;;;;;2.35;1.65;;;;;;;24.90;18.89;100438.44;5050200;28;20117;-52
2021/06/02 10:00:14;;;;;;;3.28;1.60;;;;;;;25.10;18.16;100431.38;5051615;28;20061;-53
2021/06/02 10:02:40;;;;;;;4.00;1.70;;;;;;;24.59;18.54;100411.50;5017979;28;20068;-50
2021/06/02 10:05:12;;;;;;;3.45;2.22;;;;;;;24.48;18.73;100434.81;5050450;28;20044;-54
2021/06/02 10:07:46;;;;;;;3.17;2.20;;;;;;;24.03;19.17;100425.03;5051349;28;20488;-52
2021/06/02 10:10:21;;;;;;;6.60;1.90;;;;;;;23.87;19.44;100437.09;5050883;28;20550;-53
2021/06/02 10:13:19;;;;;;;3.92;2.00;;;;;;;23.88;19.86;100400.50;5050616;28;20124;-49
2021/06/02 10:15:46;;;;;;;4.22;1.65;;;;;;;24.37;19.86;100425.28;5051119;28;20060;-51
2021/06/02 10:18:30;;;;;;;2.92;1.98;;;;;;;25.00;20.11;100429.00;5051659;28;20068;-52
2021/06/02 10:21:09;;;;;;;2.60;1.80;;;;;;;25.43;18.81;100427.88;5050718;28;20040;-54
2021/06/02 10:23:43;;;;;;;5.20;1.70;;;;;;;25.46;18.93;100442.00;5044749;28;20219;-51
2021/06/02 10:26:13;;;;;;;3.33;1.73;;;;;;;25.27;18.94;100423.63;5050189;28;20124;-51
2021/06/02 10:28:39;;;;;;;2.92;1.70;;;;;;;25.17;18.87;100427.56;5050854;28;20057;-52
2021/06/02 10:31:07;;;;;;;6.50;2.00;;;;;;;24.87;19.44;100408.72;5050614;28;20041;-50
2021/06/02 10:33:34;;;;;;;3.85;1.80;;;;;;;25.00;19.52;100429.84;5049648;28;20025;-50
2021/06/02 10:36:04;;;;;;;2.17;1.90;;;;;;;24.89;19.77;100427.69;5050430;28;20090;-53
2021/06/02 10:38:38;;;;;;;6.90;1.88;;;;;;;24.64;19.79;100398.06;5049253;28;20063;-55
2021/06/02 10:41:03;;;;;;;2.50;1.55;;;;;;;25.08;19.79;100418.72;5050889;28;20364;-53
2021/06/02 10:43:33;;;;;;;5.18;1.63;;;;;;;25.34;19.21;100451.88;5050715;28;20040;-54
2021/06/02 10:46:04;;;;;;;3.60;2.25;;;;;;;25.28;18.75;100415.16;5050853;28;20159;-54
2021/06/02 10:48:46;;;;;;;4.50;1.38;;;;;;;25.02;19.18;100416.78;5050320;28;20178;-53
2021/06/02 10:51:31;;;;;;;3.05;1.83;;;;;;;25.03;19.53;100409.41;5030767;28;20048;-55
2021/06/02 10:54:03;;;;;;;4.05;2.03;;;;;;;25.03;20.09;100413.00;5029723;28;20069;-53
2021/06/02 10:56:29;;;;;;;3.78;1.83;;;;;;;25.07;20.08;100413.44;5030509;28;20033;-51
2021/06/02 10:58:56;;;;;;;2.90;2.00;;;;;;;25.21;20.16;100415.19;5029999;28;20037;-53
2021/06/02 11:01:21;;;;;;;5.82;2.20;;;;;;;25.24;20.31;100408.41;5045475;28;20029;-51
2021/06/02 11:04:16;;;;;;;4.40;2.25;;;;;;;25.25;19.84;100407.38;5050251;28;20098;-50
2021/06/02 11:06:44;;;;;;;4.78;2.53;;;;;;;24.65;20.54;100395.09;5036930;28;20044;-52
2021/06/02 11:09:13;;;;;;;9.20;2.38;;;;;;;24.46;21.12;100425.94;5050314;28;20047;-52
2021/06/02 11:11:44;;;;;;;6.68;2.53;;;;;;;24.19;20.63;100423.91;5049500;28;20037;-53
2021/06/02 11:14:13;;;;;;;3.95;1.85;;;;;;;24.04;20.72;100429.47;5049974;28;20040;-49
2021/06/02 11:16:40;;;;;;;5.22;2.10;;;;;;;23.97;20.99;100408.53;5049992;28;20044;-53
2021/06/02 11:19:13;;;;;;;6.28;1.90;;;;;;;24.26;19.99;100402.06;5049668;28;20059;-52
2021/06/02 11:21:54;;;;;;;4.85;2.17;;;;;;;24.23;20.41;100447.06;5049516;28;20412;-51
2021/06/02 11:24:36;;;;;;;3.25;1.55;;;;;;;23.97;20.25;100419.47;5049436;28;20040;-54
2021/06/02 11:27:13;;;;;;;2.95;1.75;;;;;;;23.55;20.71;100422.88;5049921;28;20040;-52
2021/06/02 11:29:44;;;;;;;2.80;1.80;;;;;;;23.06;21.38;100416.25;5050157;28;20068;-51
2021/06/02 11:32:31;;;;;;;2.67;1.73;;;;;;;22.63;21.73;100427.84;5050302;28;20075;-53
2021/06/02 11:35:03;;;;;;;3.15;1.70;;;;;;;22.72;22.15;100418.56;5049785;28;20086;-48
2021/06/02 11:37:30;;;;;;;3.55;1.88;;;;;;;22.31;23.10;100411.66;5049736;28;20132;-51
2021/06/02 11:39:59;;;;;;;6.88;1.65;;;;;;;22.50;22.55;100439.44;5050044;28;20039;-50
2021/06/02 11:42:46;;;;;;;4.65;1.80;;;;;;;22.75;21.19;100418.19;5049833;28;20504;-51
2021/06/02 11:45:12;;;;;;;3.30;2.10;;;;;;;22.55;21.34;100422.50;5049450;28;20091;-50
2021/06/02 11:50:46;;;;;;;4.30;1.80;;;;;;;22.44;21.66;100401.97;4979106;28;20053;-51
2021/06/02 11:53:11;;;;;;;4.78;2.22;;;;;;;22.69;21.89;100426.25;4981024;28;20046;-54
2021/06/02 11:55:38;;;;;;;5.72;2.20;;;;;;;22.62;21.94;100415.25;4990291;28;20346;-51
2021/06/02 11:58:03;;;;;;;2.67;2.35;;;;;;;22.65;22.23;100407.53;4989902;28;20052;-51
2021/06/02 12:00:33;;;;;;;3.35;2.10;;;;;;;22.88;22.05;100401.13;4985409;28;20554;-52
2021/06/02 12:03:01;;;;;;;9.38;2.10;;;;;;;23.13;21.29;100402.66;4990061;28;20068;-50
2021/06/02 12:05:33;;;;;;;5.72;2.17;;;;;;;23.45;20.47;100427.84;4990192;28;20038;-51
2021/06/02 12:08:01;;;;;;;4.18;1.63;;;;;;;23.45;20.66;100398.63;4990278;28;20038;-51